KLAL/LAL METAR and TAF weather

Enter ICAO airport designator
Station Type Date Time Source
KLAL METAR 2019/12/08 00:50 UTC NOAA

KLAL 080050Z 00000KT 10SM BKN080 16/12 A3018


Station Type Date Time Source
KLAL Decoded METAR 2019/12/08 00:50 UTC NOAA

Lakeland Regional, FL, United States (KLAL) 27-59N 082-01W
Dec 07, 2019 - 07:50 PM EST / 2019.12.08 0050 UTC
Wind: Calm:0
Visibility: 10 mile(s):0
Sky conditions: mostly cloudy
Temperature: 60 F (16 C)
Dew Point: 53 F (12 C)
Relative Humidity: 77%
Pressure (altimeter): 30.18 in. Hg (1022 hPa)
ob: KLAL 080050Z 00000KT 10SM BKN080 16/12 A3018
cycle: 1

Station Type Date Time Source
KLAL TAF 2019/12/07 18:24 UTC NOAA

TAF KLAL 071721Z 0718/0818 08006KT P6SM SCT100
FM072000 03006KT P6SM BKN100
FM080200 06003KT P6SM BKN100
FM081500 08006KT P6SM SCT030 SCT100

Example: see airport list